• Join FlightAware (Why Join?)
  • Login
  • US Flag 
11:06AM EDT


 

Airport Tracker/Info


-or-


 

Live Flight TrackerFlight Track Log ✈ UPS1121 ✈ 06-Jun-2013 ✈ KALB - KBDL

Flight Track Log - Related Links

Times and Time Zones

All times are in EDT time to prevent confusion due to time zone crossing. See the UPS1121 flight status page for this flight to view local times or setup timezone preferences in your user account.

Time Position Orientation Groundspeed Altitude Reporting Facility
EDT Latitude Longitude Course Direction KTS MPH feet Rate Location/Type
08:35PM 42.7339 -73.8053 162° South 146 168 1,900  Level Boston Center
08:36PM 42.6947 -73.7875 162° South 184 212 3,400 2,280 Climbing Boston Center
08:37PM 42.6517 -73.7133 128° Southeast 211 243 6,800 3,240 Climbing Boston Center
08:38PM 42.6025 -73.6361 131° Southeast 261 300 10,300 2,100 Climbing Boston Center
08:39PM 42.5453 -73.5364 128° Southeast 303 349 11,000 300 Climbing Boston Center
08:40PM 42.4817 -73.4311 129° Southeast 355 409 11,000  Level Boston Center
08:41PM 42.4094 -73.3342 135° Southeast 362 417 11,000  Level Boston Center
08:42PM 42.3414 -73.2350 133° Southeast 357 411 11,000 -480 Level Boston Center
08:43PM 42.2900 -73.1081 119° Southeast 356 410 10,100 -660 Descending Boston Center
08:44PM 42.2636 -73.0039 109° East 329 379 9,700 -1,200 Descending Boston Center
08:45PM 42.2347 -72.9139 113° Southeast 296 341 7,900 -1,800 Descending Boston Center
08:46PM 42.2058 -72.8183 112° Southeast 274 315 6,200 -1,500 Descending Boston Center
08:46PM 42.2058 -72.8128 90° East 269 310 6,100 -1,620 Descending Boston Center
08:47PM 42.1792 -72.7314 114° Southeast 253 291 4,600 -1,920 Descending Boston Center
08:47PM 42.1728 -72.7061 109° East 254 292 4,200 -540 Descending Boston Center
08:48PM 42.1522 -72.6472 115° Southeast 232 267 4,100 -300 Descending Boston Center
08:49PM 42.1294 -72.5606 109° East 204 235 3,700 -600 Descending Boston Center
08:50PM 42.0981 -72.5325 146° Southeast 169 194 3,000 -840 Descending Boston Center
08:51PM 42.0503 -72.5436 190° South 174 200 2,100 -420 Descending Boston Center
08:52PM 42.0231 -72.5769 222° Southwest 141 162 2,200 -240 Climbing Boston Center
08:53PM 42.0000 -72.6050 222° Southwest 125 144 1,700 -660 Descending Boston Center
08:54PM 41.9750 -72.6383 225° Southwest 120 138 1,000 -660 Descending Boston Center
08:55PM 41.9519 -72.6689 225° Southwest 119 137 400 -600 Descending Boston Center
08:57PM 41.9333 -72.6833 193° South  Level FlightAware Approximate
09:04PM 41.9392 -72.6834 193° South  Level Estimated
09:05PM 41.9333 -72.6833 193° South  Level FlightAware Approximate